Time;durP1;ratioP1;P1;durP2;ratioP2;P2;SDS_P1;SDS_P2;PMS_P1;PMS_P2;Temp;Humidity;BMP_temperature;BMP_pressure;BME280_temperature;BME280_humidity;BME280_pressure;Samples;Min_cycle;Max_cycle;Signal;HPM_P1;HPM_P2
2023/10/29 00:01:03;;;;;;;6.50;5.90;;;13.90;99.90;;;;;;5014996;28;20179;-65
2023/10/29 00:03:29;;;;;;;6.10;5.60;;;14.00;99.90;;;;;;5014199;28;20295;-65
2023/10/29 00:05:55;;;;;;;6.40;5.97;;;13.90;99.90;;;;;;5014583;28;20517;-66
2023/10/29 00:08:21;;;;;;;5.40;5.10;;;14.00;99.90;;;;;;5013865;28;20176;-66
2023/10/29 00:10:47;;;;;;;5.00;4.70;;;14.00;99.90;;;;;;5014835;28;20251;-64
2023/10/29 00:13:12;;;;;;;5.27;4.90;;;14.00;99.90;;;;;;5014813;28;20178;-65
2023/10/29 00:15:38;;;;;;;5.17;4.80;;;14.00;99.90;;;;;;5013084;28;20477;-65
2023/10/29 00:18:13;;;;;;;5.10;4.90;;;14.00;99.90;;;;;;5013742;28;20175;-65
2023/10/29 00:20:39;;;;;;;5.23;4.70;;;14.00;99.90;;;;;;5013993;28;20426;-65
2023/10/29 00:23:05;;;;;;;4.60;4.50;;;14.00;99.90;;;;;;5014642;28;20459;-65
2023/10/29 00:25:31;;;;;;;5.23;5.00;;;14.00;99.90;;;;;;5013811;28;20465;-65
2023/10/29 00:27:57;;;;;;;5.20;5.00;;;14.00;99.90;;;;;;5014624;28;20474;-65
2023/10/29 00:30:22;;;;;;;5.07;4.67;;;14.00;99.90;;;;;;5014126;28;20167;-66
2023/10/29 00:32:48;;;;;;;4.57;4.30;;;14.00;99.90;;;;;;5014162;28;20187;-65
2023/10/29 00:35:14;;;;;;;5.47;5.07;;;14.00;99.90;;;;;;5014439;28;20640;-65
2023/10/29 00:37:40;;;;;;;4.80;4.57;;;14.00;99.90;;;;;;5013598;28;20535;-65
2023/10/29 00:40:06;;;;;;;5.10;4.77;;;14.10;99.90;;;;;;5013130;28;20619;-65
2023/10/29 00:42:32;;;;;;;4.77;4.47;;;14.10;99.90;;;;;;5013713;28;20203;-65
2023/10/29 00:44:57;;;;;;;4.27;4.07;;;14.20;99.90;;;;;;5013136;28;20493;-65
2023/10/29 00:47:23;;;;;;;6.70;4.53;;;14.10;99.90;;;;;;5013507;28;20233;-66
2023/10/29 00:49:49;;;;;;;4.37;4.07;;;14.10;99.90;;;;;;5013717;28;20180;-65
2023/10/29 00:52:15;;;;;;;5.13;4.80;;;14.10;99.90;;;;;;5012574;28;20967;-65
2023/10/29 00:54:41;;;;;;;5.97;4.70;;;14.20;99.90;;;;;;5013139;28;20180;-65
2023/10/29 00:57:08;;;;;;;4.47;4.20;;;14.30;99.90;;;;;;5014095;28;20408;-65
2023/10/29 00:59:34;;;;;;;4.17;3.97;;;14.30;99.90;;;;;;5012977;28;20256;-65
2023/10/29 01:02:01;;;;;;;4.90;4.70;;;14.20;99.90;;;;;;5013972;28;20422;-65
2023/10/29 01:04:27;;;;;;;4.17;4.00;;;14.00;99.90;;;;;;5013031;28;20449;-65
2023/10/29 01:06:53;;;;;;;5.50;5.10;;;14.00;99.90;;;;;;5014104;28;20414;-65
2023/10/29 01:09:19;;;;;;;5.03;4.37;;;14.10;99.90;;;;;;5013844;28;20172;-65
2023/10/29 01:11:46;;;;;;;4.70;4.40;;;14.10;99.90;;;;;;5013305;28;20175;-65
2023/10/29 01:14:12;;;;;;;4.50;4.30;;;14.20;99.90;;;;;;5013140;28;20478;-65
2023/10/29 01:16:39;;;;;;;4.70;4.40;;;14.30;99.90;;;;;;5011483;28;20430;-65
2023/10/29 01:19:04;;;;;;;4.63;4.23;;;14.30;99.90;;;;;;5011646;28;20426;-65
2023/10/29 01:21:31;;;;;;;4.27;4.07;;;14.30;99.90;;;;;;5012234;28;20455;-65
2023/10/29 01:23:57;;;;;;;4.60;4.40;;;14.30;99.90;;;;;;5012722;28;20447;-65
2023/10/29 01:26:22;;;;;;;4.07;3.97;;;14.30;99.90;;;;;;5013549;28;20891;-65
2023/10/29 01:28:48;;;;;;;4.10;4.00;;;14.30;99.90;;;;;;5012717;28;20172;-65
2023/10/29 01:31:14;;;;;;;4.30;4.10;;;14.30;99.90;;;;;;5013405;28;20181;-65
2023/10/29 01:33:40;;;;;;;4.40;4.20;;;14.30;99.90;;;;;;5012591;28;20234;-65
2023/10/29 01:36:06;;;;;;;4.37;4.17;;;14.30;99.90;;;;;;5013660;28;20256;-64
2023/10/29 01:38:33;;;;;;;4.90;4.53;;;14.30;99.90;;;;;;5012295;28;20178;-65
2023/10/29 01:40:59;;;;;;;4.30;4.00;;;14.30;99.90;;;;;;5012877;28;20423;-65
2023/10/29 01:43:25;;;;;;;4.47;4.07;;;14.30;99.90;;;;;;5012731;28;20942;-66
2023/10/29 01:45:51;;;;;;;3.97;3.83;;;14.30;99.90;;;;;;5011700;28;20496;-65
2023/10/29 01:48:17;;;;;;;4.53;4.33;;;14.20;99.90;;;;;;5012870;28;20444;-65
2023/10/29 01:50:43;;;;;;;5.60;4.30;;;14.20;99.90;;;;;;5012091;28;20813;-65
2023/10/29 01:53:09;;;;;;;4.53;4.23;;;14.30;99.90;;;;;;5013198;28;20501;-65
2023/10/29 01:55:38;;;;;;;4.50;4.30;;;14.30;99.90;;;;;;5012236;28;20427;-64
2023/10/29 01:58:04;;;;;;;4.03;3.93;;;14.30;99.90;;;;;;5012923;28;20422;-65
2023/10/29 02:00:30;;;;;;;4.33;4.10;;;14.40;99.90;;;;;;5012091;28;20473;-67
2023/10/29 02:02:56;;;;;;;4.23;3.97;;;14.40;99.90;;;;;;5011536;28;20804;-65
2023/10/29 02:05:22;;;;;;;4.20;4.00;;;14.30;99.90;;;;;;5012600;28;20445;-65
2023/10/29 02:07:47;;;;;;;4.20;3.90;;;14.20;99.90;;;;;;5011778;28;20411;-65
2023/10/29 02:10:13;;;;;;;4.30;4.13;;;14.30;99.90;;;;;;5012772;28;20183;-65
2023/10/29 02:12:39;;;;;;;4.27;4.10;;;14.40;99.90;;;;;;5010841;28;20612;-65
2023/10/29 02:15:05;;;;;;;4.10;3.90;;;14.50;99.90;;;;;;5012063;28;20685;-65
2023/10/29 02:17:31;;;;;;;4.57;4.27;;;14.50;99.90;;;;;;5011881;28;20179;-67
2023/10/29 02:19:57;;;;;;;4.47;4.27;;;14.50;99.90;;;;;;5012168;28;20415;-65
2023/10/29 02:22:24;;;;;;;4.30;4.07;;;14.50;99.90;;;;;;5012518;28;20424;-65
2023/10/29 02:24:50;;;;;;;4.30;4.10;;;14.40;99.90;;;;;;5011833;28;20438;-65
2023/10/29 02:27:16;;;;;;;4.70;4.07;;;14.30;99.90;;;;;;5012618;28;20405;-65
2023/10/29 02:29:42;;;;;;;4.10;4.00;;;14.30;99.90;;;;;;5011749;28;20435;-65
2023/10/29 02:32:08;;;;;;;4.60;4.40;;;14.30;99.90;;;;;;5012037;28;20445;-65
2023/10/29 02:34:34;;;;;;;4.70;4.50;;;14.40;99.90;;;;;;5010065;28;20431;-65
2023/10/29 02:36:59;;;;;;;4.93;4.73;;;14.40;99.90;;;;;;5012260;28;20216;-65
2023/10/29 02:39:25;;;;;;;5.17;4.87;;;14.40;99.90;;;;;;5012740;28;20203;-65
2023/10/29 02:41:51;;;;;;;5.10;4.80;;;14.40;99.90;;;;;;5011573;28;20251;-65
2023/10/29 02:44:17;;;;;;;4.53;4.33;;;14.30;99.90;;;;;;5011242;28;20698;-65
2023/10/29 02:46:42;;;;;;;4.47;4.27;;;14.30;99.90;;;;;;5010559;28;20198;-65
2023/10/29 02:49:08;;;;;;;5.17;4.70;;;14.30;99.90;;;;;;5012385;28;20182;-65
2023/10/29 02:51:34;;;;;;;4.43;4.23;;;14.20;99.90;;;;;;5011118;28;20223;-64
2023/10/29 02:53:59;;;;;;;4.73;4.53;;;14.20;99.90;;;;;;5011360;28;20189;-64
2023/10/29 02:56:25;;;;;;;4.23;4.03;;;14.10;99.90;;;;;;5011919;28;20279;-65
2023/10/29 02:58:51;;;;;;;4.30;4.10;;;14.10;99.90;;;;;;5011604;28;20167;-65
2023/10/29 03:01:17;;;;;;;4.00;3.90;;;14.10;99.90;;;;;;5022102;28;20175;-65
2023/10/29 03:03:44;;;;;;;4.20;4.00;;;14.00;99.90;;;;;;5011367;28;20293;-65
2023/10/29 03:06:10;;;;;;;4.60;4.13;;;14.10;99.90;;;;;;5009121;28;20437;-65
2023/10/29 03:08:36;;;;;;;4.00;3.90;;;14.10;99.90;;;;;;5005961;28;20431;-65
2023/10/29 03:11:03;;;;;;;4.47;4.23;;;14.10;99.90;;;;;;5011849;28;20789;-64
2023/10/29 03:13:29;;;;;;;5.50;4.33;;;14.10;99.90;;;;;;5012119;28;20419;-64
2023/10/29 03:15:56;;;;;;;4.50;4.30;;;14.10;99.90;;;;;;5011345;28;20434;-65
2023/10/29 03:18:22;;;;;;;4.00;3.90;;;14.10;99.90;;;;;;5012117;28;20426;-65
2023/10/29 03:20:48;;;;;;;5.47;5.17;;;14.10;99.90;;;;;;5011386;28;20442;-65
2023/10/29 03:23:14;;;;;;;4.37;4.10;;;14.20;99.90;;;;;;5012237;28;20464;-65
2023/10/29 03:25:40;;;;;;;7.00;6.53;;;14.10;99.90;;;;;;5011103;28;20525;-65
2023/10/29 03:28:06;;;;;;;3.83;3.60;;;14.20;99.90;;;;;;5011999;28;20845;-64
2023/10/29 03:30:32;;;;;;;4.40;4.20;;;14.30;99.90;;;;;;5011644;28;20427;-67
2023/10/29 03:32:58;;;;;;;4.40;4.10;;;14.30;99.90;;;;;;5011536;28;20243;-65
2023/10/29 03:35:26;;;;;;;4.30;4.10;;;14.30;99.90;;;;;;5010392;28;20447;-65
2023/10/29 03:37:52;;;;;;;4.37;3.97;;;14.40;99.90;;;;;;5010284;28;20193;-65
2023/10/29 03:40:18;;;;;;;4.10;3.90;;;14.40;99.90;;;;;;5011940;28;20412;-65
2023/10/29 03:42:44;;;;;;;3.80;3.70;;;14.40;99.90;;;;;;5011669;28;20211;-65
2023/10/29 03:45:10;;;;;;;4.17;3.97;;;14.30;99.90;;;;;;5015511;28;20202;-65
2023/10/29 03:47:35;;;;;;;4.13;3.83;;;14.40;99.90;;;;;;5014818;28;20647;-67
2023/10/29 03:50:02;;;;;;;3.70;3.60;;;14.40;99.90;;;;;;5014986;28;20254;-65
2023/10/29 03:52:27;;;;;;;4.00;3.90;;;14.30;99.90;;;;;;5015278;28;20285;-65
2023/10/29 03:54:54;;;;;;;3.87;3.73;;;14.40;99.90;;;;;;5014265;28;20514;-65
2023/10/29 03:57:20;;;;;;;4.00;3.70;;;14.40;99.90;;;;;;5015038;28;20427;-64
2023/10/29 03:59:46;;;;;;;3.80;3.70;;;14.40;99.90;;;;;;5014296;28;20186;-65
2023/10/29 04:02:11;;;;;;;3.93;3.63;;;14.40;99.90;;;;;;5014849;28;20459;-65
2023/10/29 04:04:37;;;;;;;3.50;3.30;;;14.40;99.90;;;;;;5014245;28;20270;-67
2023/10/29 04:07:03;;;;;;;3.70;3.50;;;14.40;99.90;;;;;;5014063;28;20181;-64
2023/10/29 04:09:29;;;;;;;3.97;3.77;;;14.40;99.90;;;;;;5015260;28;20259;-64
2023/10/29 04:11:55;;;;;;;4.33;3.93;;;14.40;99.90;;;;;;5014048;28;20351;-65
2023/10/29 04:14:21;;;;;;;3.43;3.33;;;14.50;99.90;;;;;;5013984;28;20190;-66
2023/10/29 04:16:47;;;;;;;4.03;3.93;;;14.50;99.90;;;;;;5013790;28;20469;-65
2023/10/29 04:19:13;;;;;;;4.00;3.80;;;14.50;99.90;;;;;;5014470;28;20173;-65
2023/10/29 04:21:38;;;;;;;4.30;4.10;;;14.50;99.90;;;;;;5013860;28;20508;-66
2023/10/29 04:24:05;;;;;;;3.83;3.63;;;14.50;99.90;;;;;;5014598;28;20335;-65
2023/10/29 04:26:31;;;;;;;4.30;3.90;;;14.50;99.90;;;;;;5014752;28;20226;-65
2023/10/29 04:28:56;;;;;;;4.10;3.70;;;14.50;99.90;;;;;;5013778;28;20868;-65
2023/10/29 04:31:22;;;;;;;3.80;3.70;;;14.50;99.90;;;;;;5014800;28;20603;-65
2023/10/29 04:33:48;;;;;;;4.67;4.03;;;14.50;99.90;;;;;;5013731;28;20180;-66
2023/10/29 04:36:23;;;;;;;3.87;3.50;;;14.50;99.90;;;;;;5013259;28;20423;-65
2023/10/29 04:38:49;;;;;;;3.37;3.27;;;14.60;99.90;;;;;;5013709;28;20388;-64
2023/10/29 04:41:15;;;;;;;4.10;4.00;;;14.60;99.90;;;;;;5014367;28;20491;-65
2023/10/29 04:43:41;;;;;;;4.00;3.80;;;14.60;99.90;;;;;;5012233;28;20629;-65
2023/10/29 04:46:12;;;;;;;4.33;4.07;;;14.60;99.90;;;;;;5014305;28;20186;-65
2023/10/29 04:48:39;;;;;;;3.80;3.70;;;14.60;99.90;;;;;;5013667;28;20915;-67
2023/10/29 04:51:07;;;;;;;3.70;3.53;;;14.60;99.90;;;;;;5014094;28;20532;-65
2023/10/29 04:53:37;;;;;;;3.60;3.40;;;14.70;99.90;;;;;;5013841;28;20492;-65
2023/10/29 04:56:03;;;;;;;3.90;3.70;;;14.70;99.90;;;;;;5013659;28;20419;-65
2023/10/29 04:58:31;;;;;;;3.90;3.67;;;14.70;99.90;;;;;;5014294;28;20500;-65
2023/10/29 05:00:57;;;;;;;4.37;4.17;;;14.70;99.90;;;;;;5013220;28;20655;-65
2023/10/29 05:03:23;;;;;;;4.03;3.80;;;14.80;99.90;;;;;;5012543;28;20462;-65
2023/10/29 05:05:49;;;;;;;4.50;3.90;;;14.80;99.90;;;;;;5011940;28;20537;-65
2023/10/29 05:08:15;;;;;;;3.80;3.70;;;14.90;99.90;;;;;;5013848;28;20972;-65
2023/10/29 05:10:45;;;;;;;3.90;3.70;;;14.80;99.90;;;;;;5011918;28;20487;-66
2023/10/29 05:13:11;;;;;;;3.87;3.67;;;14.80;99.90;;;;;;5013961;28;20170;-64
2023/10/29 05:15:37;;;;;;;4.13;3.90;;;14.80;99.90;;;;;;5013344;28;20431;-65
2023/10/29 05:18:03;;;;;;;4.23;4.03;;;14.80;99.90;;;;;;5013244;28;20267;-65
2023/10/29 05:20:28;;;;;;;4.03;3.90;;;14.80;99.90;;;;;;5013404;28;20184;-65
2023/10/29 05:22:54;;;;;;;3.83;3.73;;;14.90;99.90;;;;;;5012977;28;20216;-65
2023/10/29 05:25:20;;;;;;;4.30;4.03;;;14.90;99.90;;;;;;5013492;28;20704;-65
2023/10/29 05:27:53;;;;;;;3.77;3.57;;;14.90;99.90;;;;;;5012649;28;20614;-65
2023/10/29 05:30:19;;;;;;;3.60;3.50;;;15.00;99.90;;;;;;5013684;28;20190;-65
2023/10/29 05:32:45;;;;;;;3.67;3.50;;;15.00;99.90;;;;;;5012311;28;20588;-65
2023/10/29 05:35:11;;;;;;;3.80;3.60;;;14.90;99.90;;;;;;5011522;28;20524;-65
2023/10/29 05:37:37;;;;;;;3.97;3.67;;;15.00;99.90;;;;;;5012006;28;20519;-65
2023/10/29 05:40:07;;;;;;;5.00;3.90;;;15.00;99.90;;;;;;5012247;28;20436;-65
2023/10/29 05:42:34;;;;;;;4.13;3.87;;;15.00;99.90;;;;;;5013024;28;20645;-65
2023/10/29 05:45:00;;;;;;;3.63;3.53;;;15.10;99.90;;;;;;5012724;28;20598;-65
2023/10/29 05:47:26;;;;;;;4.10;3.90;;;15.10;99.90;;;;;;5012941;28;20428;-65
2023/10/29 05:49:54;;;;;;;3.77;3.60;;;15.00;99.90;;;;;;5011010;28;20403;-65
2023/10/29 05:52:20;;;;;;;3.90;3.57;;;15.10;99.90;;;;;;5012754;28;20248;-65
2023/10/29 05:54:45;;;;;;;3.57;3.37;;;15.10;99.90;;;;;;5012252;28;20510;-65
2023/10/29 05:57:11;;;;;;;3.50;3.30;;;15.20;99.90;;;;;;5012743;28;20855;-64
2023/10/29 05:59:37;;;;;;;4.20;3.80;;;15.10;99.90;;;;;;5012910;28;20455;-65
2023/10/29 06:02:03;;;;;;;3.10;3.00;;;15.10;99.90;;;;;;5012198;28;20319;-65
2023/10/29 06:04:29;;;;;;;3.30;3.10;;;15.10;99.90;;;;;;5011893;28;20546;-65
2023/10/29 06:06:55;;;;;;;4.27;3.97;;;15.10;99.90;;;;;;5011448;28;20417;-65
2023/10/29 06:09:21;;;;;;;3.43;3.30;;;15.20;99.90;;;;;;5011979;28;20204;-64
2023/10/29 06:11:46;;;;;;;3.80;3.60;;;15.10;99.90;;;;;;5011743;28;20560;-65
2023/10/29 06:14:12;;;;;;;3.60;3.50;;;15.10;99.90;;;;;;5012519;28;20214;-65
2023/10/29 06:16:38;;;;;;;3.80;3.60;;;15.10;99.90;;;;;;5012405;28;20443;-65
2023/10/29 06:19:04;;;;;;;4.13;3.43;;;15.10;99.90;;;;;;5010077;28;20626;-65
2023/10/29 06:21:30;;;;;;;4.93;4.57;;;15.10;99.90;;;;;;5011998;28;20633;-65
2023/10/29 06:23:56;;;;;;;8.93;8.00;;;15.10;99.90;;;;;;5012001;28;20220;-65
2023/10/29 06:26:22;;;;;;;4.23;3.93;;;15.10;99.90;;;;;;5012616;28;20815;-65
2023/10/29 06:28:48;;;;;;;4.13;3.83;;;15.10;99.90;;;;;;5011806;28;20181;-66
2023/10/29 06:31:15;;;;;;;3.10;3.00;;;15.20;99.90;;;;;;5012438;28;20412;-64
2023/10/29 06:33:41;;;;;;;4.07;3.43;;;15.20;99.90;;;;;;5012641;28;20208;-63
2023/10/29 06:36:07;;;;;;;2.90;2.80;;;15.20;99.90;;;;;;5010319;28;20461;-70
2023/10/29 06:38:33;;;;;;;2.97;2.87;;;15.20;99.90;;;;;;5011133;28;20839;-68
2023/10/29 06:40:59;;;;;;;3.00;2.90;;;15.20;99.90;;;;;;5008700;28;20432;-67
2023/10/29 06:43:26;;;;;;;3.70;3.50;;;15.40;99.90;;;;;;5012019;28;20464;-68
2023/10/29 06:45:52;;;;;;;5.47;3.40;;;15.50;99.90;;;;;;5010347;28;20454;-67
2023/10/29 06:48:18;;;;;;;3.90;3.70;;;15.50;99.90;;;;;;5012406;28;20444;-67
2023/10/29 06:50:43;;;;;;;3.57;3.30;;;15.60;99.90;;;;;;5012200;28;20457;-67
2023/10/29 06:53:09;;;;;;;4.70;3.37;;;15.60;99.90;;;;;;5010166;28;20491;-67
2023/10/29 06:55:36;;;;;;;3.83;3.50;;;15.80;99.90;;;;;;5012324;28;20190;-68
2023/10/29 06:58:02;;;;;;;3.07;2.97;;;15.90;99.90;;;;;;5011326;28;20190;-67
2023/10/29 07:00:29;;;;;;;3.60;3.40;;;15.90;99.90;;;;;;5011083;28;20448;-68
2023/10/29 07:02:56;;;;;;;3.20;3.10;;;16.00;99.90;;;;;;5010309;28;20465;-67
2023/10/29 07:05:21;;;;;;;3.53;3.40;;;16.00;99.90;;;;;;5010979;28;20918;-68
2023/10/29 07:07:47;;;;;;;2.93;2.83;;;16.00;99.90;;;;;;5011674;28;20406;-68
2023/10/29 07:10:13;;;;;;;3.23;3.07;;;16.10;99.90;;;;;;5012136;28;20175;-68
2023/10/29 07:12:39;;;;;;;3.73;3.53;;;16.10;99.90;;;;;;5012271;28;20170;-67
2023/10/29 07:15:05;;;;;;;3.10;2.90;;;16.20;99.90;;;;;;5011382;28;21249;-67
2023/10/29 07:17:32;;;;;;;3.10;3.00;;;16.30;99.90;;;;;;5011502;28;20183;-68
2023/10/29 07:19:57;;;;;;;3.20;3.03;;;16.20;99.90;;;;;;5013805;28;20821;-67
2023/10/29 07:22:23;;;;;;;2.80;2.70;;;16.20;99.90;;;;;;5015568;28;20405;-68
2023/10/29 07:24:49;;;;;;;3.13;3.03;;;16.20;99.90;;;;;;5015170;28;20179;-67
2023/10/29 07:27:15;;;;;;;3.10;2.90;;;16.20;99.90;;;;;;5015625;28;20179;-68
2023/10/29 07:29:40;;;;;;;3.10;3.00;;;16.10;99.90;;;;;;5015752;28;20503;-68
2023/10/29 07:32:06;;;;;;;3.00;2.90;;;16.20;99.90;;;;;;5012795;28;20479;-67
2023/10/29 07:34:32;;;;;;;3.00;2.90;;;16.20;99.90;;;;;;5013944;28;20717;-67
2023/10/29 07:36:58;;;;;;;2.70;2.70;;;16.30;99.90;;;;;;5013608;28;20405;-67
2023/10/29 07:39:23;;;;;;;3.20;3.00;;;16.30;99.90;;;;;;5015264;28;20215;-67
2023/10/29 07:41:49;;;;;;;2.83;2.70;;;16.20;99.90;;;;;;5014995;28;20178;-67
2023/10/29 07:44:15;;;;;;;3.27;3.13;;;16.20;99.90;;;;;;5015048;28;20204;-67
2023/10/29 07:46:40;;;;;;;2.87;2.67;;;16.20;99.90;;;;;;5015382;28;20179;-68
2023/10/29 07:49:06;;;;;;;2.47;2.37;;;16.20;99.90;;;;;;5014192;28;20540;-67
2023/10/29 07:51:32;;;;;;;2.50;2.40;;;16.10;99.90;;;;;;5014627;28;20230;-67
2023/10/29 07:53:58;;;;;;;2.50;2.40;;;16.10;99.90;;;;;;5014524;28;20187;-68
2023/10/29 07:56:23;;;;;;;2.67;2.47;;;16.20;99.90;;;;;;5014962;28;20531;-68
2023/10/29 07:58:49;;;;;;;2.80;2.60;;;16.30;99.90;;;;;;5014504;28;20182;-68
2023/10/29 08:01:17;;;;;;;3.80;3.60;;;16.30;99.90;;;;;;5018923;28;20576;-68
2023/10/29 08:03:43;;;;;;;2.90;2.70;;;16.30;99.90;;;;;;5020819;28;20648;-68
2023/10/29 08:06:11;;;;;;;2.90;2.70;;;16.30;99.90;;;;;;5020931;28;20409;-67
2023/10/29 08:08:37;;;;;;;2.70;2.50;;;16.40;99.90;;;;;;5023397;28;20466;-68
2023/10/29 08:11:03;;;;;;;3.43;3.27;;;16.50;99.90;;;;;;5018054;28;20429;-67
2023/10/29 08:13:29;;;;;;;2.70;2.60;;;16.60;99.90;;;;;;5022612;28;20759;-67
2023/10/29 08:15:54;;;;;;;3.43;3.23;;;16.50;99.90;;;;;;5022355;28;20185;-68
2023/10/29 08:18:20;;;;;;;3.23;2.73;;;16.60;99.90;;;;;;5022631;28;20178;-67
2023/10/29 08:20:46;;;;;;;3.10;3.00;;;16.70;99.90;;;;;;5025331;28;20413;-68
2023/10/29 08:23:12;;;;;;;2.97;2.87;;;16.80;99.90;;;;;;5024430;28;20461;-68
2023/10/29 08:25:38;;;;;;;3.80;3.63;;;16.80;99.90;;;;;;5016372;28;20243;-68
2023/10/29 08:28:08;;;;;;;3.97;3.87;;;16.90;99.90;;;;;;5021886;28;20178;-67
2023/10/29 08:30:34;;;;;;;3.70;3.50;;;16.90;99.90;;;;;;5022200;28;20456;-68
2023/10/29 08:33:00;;;;;;;7.47;6.90;;;17.00;99.90;;;;;;5021885;28;20941;-67
2023/10/29 08:35:26;;;;;;;4.07;3.87;;;17.00;99.90;;;;;;5022684;28;20450;-68
2023/10/29 08:37:51;;;;;;;4.30;3.50;;;17.00;99.90;;;;;;5015805;28;20256;-68
2023/10/29 08:40:17;;;;;;;4.13;3.93;;;17.10;99.90;;;;;;5033892;28;20166;-68
2023/10/29 08:42:43;;;;;;;3.93;3.80;;;16.90;99.90;;;;;;5014199;28;20544;-68
2023/10/29 08:45:09;;;;;;;4.00;3.80;;;17.00;99.90;;;;;;5012082;28;20182;-67
2023/10/29 08:47:36;;;;;;;4.10;3.80;;;17.00;99.90;;;;;;5010968;28;20905;-68
2023/10/29 08:50:03;;;;;;;4.77;4.27;;;16.90;99.90;;;;;;5012540;28;20484;-68
2023/10/29 08:52:29;;;;;;;2.60;2.50;;;16.90;99.90;;;;;;5013580;28;20461;-67
2023/10/29 08:54:54;;;;;;;3.00;2.80;;;16.90;99.90;;;;;;5012579;28;20497;-67
2023/10/29 08:57:21;;;;;;;2.57;2.47;;;16.80;99.90;;;;;;5012716;28;20500;-67
2023/10/29 08:59:48;;;;;;;2.40;2.30;;;16.90;99.90;;;;;;5012325;28;20184;-68
2023/10/29 09:02:14;;;;;;;2.37;2.27;;;16.90;99.90;;;;;;5017880;28;20460;-68
2023/10/29 09:04:39;;;;;;;4.00;3.37;;;16.90;99.90;;;;;;5029779;28;20510;-68
2023/10/29 09:07:06;;;;;;;2.67;2.57;;;17.00;99.90;;;;;;5022171;28;20631;-68
2023/10/29 09:09:32;;;;;;;2.87;2.67;;;16.90;99.90;;;;;;5022487;28;20436;-68
2023/10/29 09:11:58;;;;;;;2.73;2.60;;;16.90;99.90;;;;;;5017785;28;20453;-68
2023/10/29 09:14:24;;;;;;;2.90;2.57;;;17.00;99.90;;;;;;5021566;28;20187;-68
2023/10/29 09:16:49;;;;;;;3.00;2.70;;;17.00;99.90;;;;;;5016728;28;20425;-68
2023/10/29 09:19:16;;;;;;;3.27;3.07;;;17.00;99.90;;;;;;5012579;28;20175;-68
2023/10/29 09:21:43;;;;;;;2.50;2.40;;;17.10;99.90;;;;;;5013821;28;20258;-68
2023/10/29 09:24:08;;;;;;;4.10;2.27;;;16.90;99.90;;;;;;5012685;28;20812;-68
2023/10/29 09:26:36;;;;;;;2.60;2.50;;;16.90;99.90;;;;;;5007387;28;20446;-68
2023/10/29 09:29:02;;;;;;;2.60;2.50;;;16.70;99.90;;;;;;5012104;28;20229;-68
2023/10/29 09:31:28;;;;;;;3.03;2.83;;;16.70;99.90;;;;;;5013697;28;20425;-68
2023/10/29 09:33:54;;;;;;;2.50;2.37;;;16.70;99.90;;;;;;5013002;28;20426;-67
2023/10/29 09:36:21;;;;;;;2.80;2.70;;;16.70;99.90;;;;;;5012850;28;20410;-68
2023/10/29 09:38:48;;;;;;;2.30;2.20;;;16.80;99.90;;;;;;5011157;28;20749;-68
2023/10/29 09:41:17;;;;;;;2.13;2.03;;;16.70;99.90;;;;;;5007936;28;20464;-70
2023/10/29 09:43:44;;;;;;;2.07;1.97;;;16.70;99.90;;;;;;5008899;28;20468;-68
2023/10/29 09:46:11;;;;;;;3.27;3.10;;;16.70;99.90;;;;;;5010345;28;20430;-63
2023/10/29 09:48:37;;;;;;;3.93;3.03;;;16.70;99.90;;;;;;5013014;28;20422;-63
2023/10/29 09:51:06;;;;;;;2.80;2.70;;;16.60;99.90;;;;;;5011344;28;20483;-63
2023/10/29 09:53:36;;;;;;;4.53;4.23;;;16.50;99.90;;;;;;5011681;28;20437;-64
2023/10/29 09:56:03;;;;;;;3.60;3.40;;;16.50;99.90;;;;;;4992339;28;20470;-64
2023/10/29 09:58:29;;;;;;;3.47;3.30;;;16.50;99.90;;;;;;5009816;28;22460;-64
2023/10/29 10:00:58;;;;;;;2.90;2.80;;;16.40;99.90;;;;;;5013017;28;20426;-69
2023/10/29 10:03:26;;;;;;;3.20;3.00;;;16.30;99.90;;;;;;5009486;28;20962;-65
2023/10/29 10:05:52;;;;;;;3.50;3.30;;;16.20;99.90;;;;;;5009236;28;20496;-63
2023/10/29 10:08:30;;;;;;;2.87;2.77;;;16.20;99.90;;;;;;5013778;28;20456;-64
2023/10/29 10:10:57;;;;;;;3.33;3.20;;;16.10;99.90;;;;;;5020521;28;20425;-70
2023/10/29 10:13:41;;;;;;;2.80;2.70;;;16.20;99.90;;;;;;5019724;28;20429;-65
2023/10/29 10:16:12;;;;;;;1.93;1.83;;;16.20;99.90;;;;;;4992335;28;20402;-68
2023/10/29 10:18:51;;;;;;;3.03;2.83;;;16.40;99.90;;;;;;5001499;28;20460;-69
2023/10/29 10:21:20;;;;;;;4.63;2.90;;;17.00;99.90;;;;;;5009815;28;20449;-65
2023/10/29 10:23:56;;;;;;;3.30;3.10;;;17.40;99.90;;;;;;5022818;28;20496;-64
2023/10/29 10:26:34;;;;;;;3.20;3.10;;;17.80;99.90;;;;;;5021109;28;20627;-65
2023/10/29 10:29:01;;;;;;;3.40;3.20;;;18.10;99.90;;;;;;5021951;28;20775;-69
2023/10/29 10:31:28;;;;;;;3.60;3.43;;;18.30;99.90;;;;;;5015902;28;20440;-64
2023/10/29 10:34:17;;;;;;;3.17;2.90;;;18.40;99.90;;;;;;5017775;28;20417;-64
2023/10/29 10:36:49;;;;;;;3.03;3.00;;;18.40;99.90;;;;;;5020509;28;20417;-64
2023/10/29 10:39:19;;;;;;;3.70;3.50;;;18.30;99.90;;;;;;5013583;28;20510;-66
2023/10/29 10:41:47;;;;;;;3.67;3.47;;;18.20;99.90;;;;;;5023168;28;20410;-64
2023/10/29 10:44:14;;;;;;;3.50;3.20;;;18.10;99.90;;;;;;5015321;28;20512;-69
2023/10/29 10:46:50;;;;;;;3.33;3.13;;;17.90;99.90;;;;;;5017631;28;20425;-63
2023/10/29 10:49:18;;;;;;;2.90;2.70;;;18.00;99.90;;;;;;5011815;28;20426;-64
2023/10/29 10:51:49;;;;;;;3.50;3.30;;;17.90;99.90;;;;;;5017065;28;20818;-64
2023/10/29 10:54:19;;;;;;;3.53;3.23;;;17.80;99.90;;;;;;5022683;28;20409;-64
2023/10/29 10:56:45;;;;;;;2.90;2.80;;;17.80;99.90;;;;;;5024442;28;20442;-64
2023/10/29 10:59:11;;;;;;;2.90;2.80;;;17.90;99.90;;;;;;5025757;28;20414;-64
2023/10/29 11:01:38;;;;;;;2.70;2.60;;;18.10;99.90;;;;;;5026859;28;20467;-63
2023/10/29 11:04:07;;;;;;;3.30;3.10;;;18.00;99.90;;;;;;5020274;28;20234;-64
2023/10/29 11:06:36;;;;;;;3.00;2.80;;;18.00;99.90;;;;;;5025594;28;20453;-64
2023/10/29 11:09:03;;;;;;;2.63;2.40;;;18.00;99.90;;;;;;5026009;28;20425;-64
2023/10/29 11:11:34;;;;;;;2.97;2.87;;;17.90;99.90;;;;;;5021350;28;20969;-64
2023/10/29 11:14:10;;;;;;;3.50;3.40;;;17.70;99.90;;;;;;5024795;28;20406;-67
2023/10/29 11:16:48;;;;;;;3.23;3.10;;;17.70;99.90;;;;;;5024685;28;20412;-64
2023/10/29 11:19:35;;;;;;;3.60;3.40;;;17.60;99.90;;;;;;5022745;28;20417;-63
2023/10/29 11:22:16;;;;;;;3.13;3.03;;;17.50;99.90;;;;;;5022524;28;20449;-65
2023/10/29 11:24:42;;;;;;;3.83;3.70;;;17.40;99.90;;;;;;5025521;28;20448;-63
2023/10/29 11:27:33;;;;;;;3.80;3.40;;;17.30;99.90;;;;;;5020304;28;20410;-63
2023/10/29 11:30:21;;;;;;;2.43;2.33;;;17.20;99.90;;;;;;5022374;28;20467;-64
2023/10/29 11:33:07;;;;;;;2.40;2.30;;;17.00;99.90;;;;;;5009185;28;20921;-64
2023/10/29 11:35:33;;;;;;;2.30;2.17;;;16.90;99.90;;;;;;5015604;28;20887;-63
2023/10/29 11:38:02;;;;;;;2.53;2.30;;;16.90;99.90;;;;;;5007035;28;20418;-63
2023/10/29 11:40:32;;;;;;;2.00;1.80;;;16.80;99.90;;;;;;5005486;28;20415;-64
2023/10/29 11:43:19;;;;;;;2.10;2.00;;;16.80;99.90;;;;;;5002534;28;20508;-64
2023/10/29 11:46:00;;;;;;;2.43;2.17;;;16.70;99.90;;;;;;5006343;28;20414;-63
2023/10/29 11:48:29;;;;;;;2.50;2.30;;;16.60;99.90;;;;;;5005900;28;20419;-63
2023/10/29 11:51:03;;;;;;;2.60;2.50;;;16.60;99.90;;;;;;5003154;28;20481;-63
2023/10/29 11:53:30;;;;;;;2.87;2.67;;;16.60;99.90;;;;;;5004002;28;20430;-63
2023/10/29 11:55:59;;;;;;;2.53;2.43;;;16.50;99.90;;;;;;5005591;28;20414;-65
2023/10/29 11:58:28;;;;;;;2.60;2.50;;;16.40;99.90;;;;;;5005230;28;20410;-63
2023/10/29 12:00:54;;;;;;;2.90;2.80;;;16.40;99.90;;;;;;5002554;28;20989;-63
2023/10/29 12:03:21;;;;;;;15.50;12.40;;;16.40;99.90;;;;;;5005625;28;20464;-69
2023/10/29 12:05:51;;;;;;;3.60;3.50;;;16.40;99.90;;;;;;5006742;28;20457;-69
2023/10/29 12:08:17;;;;;;;6.83;6.13;;;16.50;99.90;;;;;;5002439;28;20497;-68
2023/10/29 12:10:54;;;;;;;2.93;2.73;;;16.30;99.90;;;;;;5005442;28;20472;-68
2023/10/29 12:13:20;;;;;;;21.20;17.43;;;16.30;99.90;;;;;;5002332;28;20442;-70
2023/10/29 12:16:03;;;;;;;14.80;11.80;;;16.10;99.90;;;;;;5005622;28;20399;-70
2023/10/29 12:18:29;;;;;;;2.80;2.70;;;16.20;99.90;;;;;;5005524;28;20400;-69
2023/10/29 12:21:06;;;;;;;2.73;2.63;;;16.00;99.90;;;;;;5002512;28;20414;-69
2023/10/29 12:23:33;;;;;;;2.60;2.50;;;15.90;99.90;;;;;;5006233;28;20490;-69
2023/10/29 12:26:08;;;;;;;2.60;2.50;;;15.80;99.90;;;;;;5004866;28;20430;-69
2023/10/29 12:28:35;;;;;;;2.90;2.80;;;15.90;99.90;;;;;;5003614;28;20402;-68
2023/10/29 12:31:01;;;;;;;3.20;2.97;;;15.70;99.90;;;;;;5005929;28;20440;-69
2023/10/29 12:33:29;;;;;;;3.73;3.53;;;15.70;99.90;;;;;;5003188;28;20420;-69
2023/10/29 12:35:57;;;;;;;9.00;8.20;;;15.70;99.90;;;;;;5005127;28;20897;-68
2023/10/29 12:38:24;;;;;;;4.07;3.77;;;15.90;99.90;;;;;;5002941;28;20966;-69
2023/10/29 12:41:14;;;;;;;4.57;4.20;;;16.00;99.90;;;;;;5002222;28;20447;-68
2023/10/29 12:43:48;;;;;;;3.40;3.30;;;16.20;99.90;;;;;;5002583;28;20453;-68
2023/10/29 12:46:21;;;;;;;5.27;4.97;;;16.10;99.90;;;;;;5002390;28;20755;-69